createdAt,value
2024-01-31T00:02:11.361Z,15.80
2024-01-31T00:04:39.058Z,16.13
2024-01-31T00:07:06.433Z,15.48
2024-01-31T00:09:33.722Z,14.90
2024-01-31T00:12:00.946Z,14.80
2024-01-31T00:14:28.186Z,14.73
2024-01-31T00:16:55.451Z,13.73
2024-01-31T00:19:22.765Z,14.65
2024-01-31T00:21:50.070Z,14.90
2024-01-31T00:24:17.372Z,13.13
2024-01-31T00:26:44.589Z,14.15
2024-01-31T00:29:11.820Z,14.85
2024-01-31T00:31:39.184Z,14.15
2024-01-31T00:34:06.591Z,13.02
2024-01-31T00:36:33.980Z,14.57
2024-01-31T00:39:01.202Z,13.60
2024-01-31T00:41:28.483Z,13.70
2024-01-31T00:43:55.746Z,13.43
2024-01-31T00:46:23.045Z,13.32
2024-01-31T00:48:50.606Z,13.70
2024-01-31T00:51:17.888Z,13.52
2024-01-31T00:53:45.157Z,13.45
2024-01-31T00:56:12.375Z,13.27
2024-01-31T00:58:40.026Z,13.23
2024-01-31T01:01:07.347Z,13.32
2024-01-31T01:03:34.661Z,13.02
2024-01-31T01:06:06.794Z,12.07
2024-01-31T01:08:34.510Z,13.25
2024-01-31T01:11:01.749Z,13.10
2024-01-31T01:13:29.044Z,12.43
2024-01-31T01:15:56.337Z,12.38
2024-01-31T01:18:23.571Z,12.02
2024-01-31T01:20:50.866Z,12.63
2024-01-31T01:23:18.185Z,11.95
2024-01-31T01:25:45.510Z,12.15
2024-01-31T01:28:12.813Z,12.35
2024-01-31T01:30:40.093Z,11.90
2024-01-31T01:33:07.441Z,12.10
2024-01-31T01:35:34.799Z,11.88
2024-01-31T01:38:01.984Z,12.40
2024-01-31T01:40:29.261Z,12.02
2024-01-31T01:42:56.601Z,11.73
2024-01-31T01:45:23.845Z,10.85
2024-01-31T01:47:53.875Z,12.15
2024-01-31T01:50:21.703Z,10.57
2024-01-31T01:52:49.386Z,11.52
2024-01-31T01:55:16.838Z,11.02
2024-01-31T01:57:44.395Z,11.63
2024-01-31T02:00:11.963Z,10.85
2024-01-31T02:02:39.714Z,10.85
2024-01-31T02:05:08.744Z,11.18
2024-01-31T02:07:36.804Z,10.80
2024-01-31T02:10:05.294Z,11.77
2024-01-31T02:12:32.692Z,10.23
2024-01-31T02:15:00.816Z,10.98
2024-01-31T02:17:28.320Z,10.95
2024-01-31T02:19:55.664Z,10.50
2024-01-31T02:22:23.019Z,11.13
2024-01-31T02:24:50.306Z,10.00
2024-01-31T02:27:17.588Z,9.88
2024-01-31T02:29:44.961Z,10.68
2024-01-31T02:32:12.247Z,10.02
2024-01-31T02:34:39.683Z,10.52
2024-01-31T02:37:06.985Z,9.88
2024-01-31T02:39:34.844Z,9.73
2024-01-31T02:42:02.223Z,9.80
2024-01-31T02:44:29.458Z,10.52
2024-01-31T02:46:56.754Z,11.10
2024-01-31T02:49:24.209Z,10.15
2024-01-31T02:51:51.630Z,9.65
2024-01-31T02:54:18.872Z,9.65
2024-01-31T02:56:46.112Z,9.50
2024-01-31T02:59:13.329Z,9.65
2024-01-31T03:01:46.932Z,10.60
2024-01-31T03:04:14.453Z,9.80
2024-01-31T03:06:41.828Z,8.98
2024-01-31T03:09:10.558Z,9.70
2024-01-31T03:11:37.904Z,9.10
2024-01-31T03:14:05.154Z,9.90
2024-01-31T03:16:32.440Z,10.13
2024-01-31T03:19:00.130Z,8.85
2024-01-31T03:21:27.520Z,9.65
2024-01-31T03:23:54.746Z,9.20
2024-01-31T03:26:22.014Z,8.77
2024-01-31T03:28:49.376Z,9.15
2024-01-31T03:31:16.743Z,9.80
2024-01-31T03:33:44.197Z,9.13
2024-01-31T03:36:12.483Z,8.80
2024-01-31T03:38:42.980Z,9.32
2024-01-31T03:41:10.279Z,9.05
2024-01-31T03:43:38.110Z,8.63
2024-01-31T03:46:08.694Z,9.18
2024-01-31T03:48:36.149Z,8.63
2024-01-31T03:51:03.392Z,8.90
2024-01-31T03:53:30.608Z,9.13
2024-01-31T03:55:58.141Z,8.73
2024-01-31T03:58:25.577Z,9.00
2024-01-31T04:00:52.867Z,7.80
2024-01-31T04:03:22.435Z,8.52
2024-01-31T04:05:50.433Z,9.52
2024-01-31T04:08:18.069Z,9.23
2024-01-31T04:10:45.354Z,8.70
2024-01-31T04:13:12.736Z,8.73
2024-01-31T04:15:40.181Z,8.85
2024-01-31T04:18:09.068Z,8.80
2024-01-31T04:20:40.117Z,8.48
2024-01-31T04:23:07.816Z,8.50
2024-01-31T04:25:35.476Z,8.60
2024-01-31T04:28:02.923Z,8.75
2024-01-31T04:30:32.867Z,8.65
2024-01-31T04:33:03.937Z,8.18
2024-01-31T04:35:31.300Z,8.15
2024-01-31T04:37:58.586Z,8.75
2024-01-31T04:40:25.882Z,8.27
2024-01-31T04:42:54.521Z,8.27
2024-01-31T04:45:22.142Z,7.97
2024-01-31T04:47:49.513Z,8.40
2024-01-31T04:50:17.171Z,8.32
2024-01-31T04:52:45.551Z,8.65
2024-01-31T04:55:12.971Z,8.52
2024-01-31T04:57:41.935Z,8.70
2024-01-31T05:00:14.252Z,8.40
2024-01-31T05:02:41.528Z,8.30
2024-01-31T05:05:09.411Z,8.43
2024-01-31T05:07:36.833Z,8.00
2024-01-31T05:10:04.957Z,8.02
2024-01-31T05:12:32.227Z,8.32
2024-01-31T05:14:59.529Z,8.60
2024-01-31T05:17:26.793Z,8.98
2024-01-31T05:19:54.115Z,8.82
2024-01-31T05:22:21.403Z,9.15
2024-01-31T05:24:48.709Z,8.25
2024-01-31T05:27:15.965Z,8.38
2024-01-31T05:29:43.305Z,8.93
2024-01-31T05:32:10.517Z,8.38
2024-01-31T05:34:38.563Z,7.90
2024-01-31T05:37:05.974Z,7.82
2024-01-31T05:39:33.216Z,8.52
2024-01-31T05:42:00.413Z,8.05
2024-01-31T05:44:27.641Z,7.43
2024-01-31T05:46:54.908Z,8.23
2024-01-31T05:49:22.567Z,8.55
2024-01-31T05:51:52.333Z,8.63
2024-01-31T05:54:20.473Z,8.63
2024-01-31T05:56:47.770Z,7.97
2024-01-31T05:59:15.055Z,7.80
2024-01-31T06:01:42.412Z,8.50
2024-01-31T06:04:10.740Z,8.77
2024-01-31T06:06:38.109Z,9.35
2024-01-31T06:09:07.147Z,8.02
2024-01-31T06:11:34.447Z,8.93
2024-01-31T06:14:01.689Z,8.90
2024-01-31T06:16:29.039Z,9.80
2024-01-31T06:18:56.419Z,8.98
2024-01-31T06:21:23.799Z,9.80
2024-01-31T06:23:51.141Z,9.65
2024-01-31T06:26:18.354Z,9.20
2024-01-31T06:28:45.950Z,9.88
2024-01-31T06:31:25.782Z,8.85
2024-01-31T06:33:53.436Z,11.38
2024-01-31T06:36:21.304Z,9.80
2024-01-31T06:38:48.760Z,9.18
2024-01-31T06:41:16.722Z,9.77
2024-01-31T06:43:44.222Z,9.75
2024-01-31T06:46:11.755Z,9.93
2024-01-31T06:48:39.186Z,11.18
2024-01-31T06:51:06.581Z,10.55
2024-01-31T06:53:33.809Z,10.13
2024-01-31T06:56:01.700Z,9.52
2024-01-31T06:58:29.052Z,9.98
2024-01-31T07:00:59.253Z,9.32
2024-01-31T07:03:26.828Z,11.10
2024-01-31T07:05:54.583Z,11.25
2024-01-31T07:08:21.813Z,10.60
2024-01-31T07:10:49.230Z,10.50
2024-01-31T07:13:16.777Z,10.68
2024-01-31T07:15:43.980Z,10.60
2024-01-31T07:18:11.343Z,10.57
2024-01-31T07:20:39.059Z,10.65
2024-01-31T07:23:06.385Z,9.98
2024-01-31T07:25:33.660Z,10.43
2024-01-31T07:28:00.905Z,9.82
2024-01-31T07:30:28.146Z,10.32
2024-01-31T07:32:58.253Z,10.60
2024-01-31T07:35:27.170Z,10.48
2024-01-31T07:37:55.036Z,10.73
2024-01-31T07:40:22.368Z,10.50
2024-01-31T07:42:49.678Z,10.60
2024-01-31T07:45:16.916Z,10.52
2024-01-31T07:47:44.187Z,9.90
2024-01-31T07:50:11.763Z,11.15
2024-01-31T07:52:39.003Z,10.25
2024-01-31T07:55:07.973Z,10.50
2024-01-31T07:57:35.364Z,9.93
2024-01-31T08:00:02.600Z,9.65
2024-01-31T08:02:29.866Z,11.07
2024-01-31T08:04:57.208Z,10.43
2024-01-31T08:07:24.500Z,10.35
2024-01-31T08:09:51.880Z,10.65
2024-01-31T08:12:19.435Z,9.90
2024-01-31T08:14:46.692Z,10.30
2024-01-31T08:17:13.899Z,9.98
2024-01-31T08:19:41.211Z,10.13
2024-01-31T08:22:08.506Z,10.80
2024-01-31T08:24:35.771Z,10.05
2024-01-31T08:27:03.019Z,10.23
2024-01-31T08:29:30.368Z,10.93
2024-01-31T08:31:57.867Z,10.48
2024-01-31T08:34:28.618Z,10.40
2024-01-31T08:36:58.395Z,10.50
2024-01-31T08:39:25.645Z,10.60
2024-01-31T08:41:52.863Z,9.60
2024-01-31T08:44:20.079Z,10.10
2024-01-31T08:46:58.374Z,9.93
2024-01-31T08:49:34.578Z,10.18
2024-01-31T08:52:04.745Z,11.15
2024-01-31T08:54:34.451Z,10.45
2024-01-31T08:57:01.800Z,11.13
2024-01-31T08:59:29.076Z,11.80
2024-01-31T09:01:56.352Z,10.85
2024-01-31T09:04:24.204Z,11.25
2024-01-31T09:06:51.721Z,11.95
2024-01-31T09:09:19.092Z,11.25
2024-01-31T09:11:46.302Z,10.98
2024-01-31T09:14:14.051Z,11.48
2024-01-31T09:16:41.552Z,11.98
2024-01-31T09:19:10.499Z,12.70
2024-01-31T09:21:37.938Z,12.48
2024-01-31T09:24:05.328Z,12.57
2024-01-31T09:26:32.558Z,12.55
2024-01-31T09:28:59.898Z,12.52
2024-01-31T09:31:28.639Z,13.30
2024-01-31T09:33:56.622Z,12.75
2024-01-31T09:36:24.316Z,13.15
2024-01-31T09:38:52.190Z,13.93
2024-01-31T09:41:19.691Z,13.02
2024-01-31T09:43:47.317Z,13.60
2024-01-31T09:46:15.142Z,13.63
2024-01-31T09:48:42.669Z,13.63
2024-01-31T09:51:10.145Z,13.30
2024-01-31T09:53:38.301Z,13.45
2024-01-31T09:56:06.699Z,13.27
2024-01-31T09:58:34.159Z,13.68
2024-01-31T10:01:10.565Z,14.18
2024-01-31T10:03:45.460Z,13.40
2024-01-31T10:06:13.470Z,14.15
2024-01-31T10:08:40.906Z,12.95
2024-01-31T10:11:08.432Z,13.70
2024-01-31T10:13:35.950Z,14.57
2024-01-31T10:16:03.447Z,14.77
2024-01-31T10:18:31.247Z,14.20
2024-01-31T10:20:59.090Z,14.35
2024-01-31T10:23:27.221Z,14.68
2024-01-31T10:25:55.123Z,13.50
2024-01-31T10:28:23.616Z,14.50
2024-01-31T10:30:51.592Z,15.73
2024-01-31T10:33:19.152Z,16.58
2024-01-31T10:36:24.623Z,15.68
2024-01-31T10:38:35.673Z,15.18
2024-01-31T10:41:04.236Z,16.15
2024-01-31T10:43:32.808Z,16.67
2024-01-31T10:46:00.092Z,16.88
2024-01-31T10:48:28.002Z,20.25
2024-01-31T10:50:56.963Z,17.83
2024-01-31T10:53:24.937Z,19.92
2024-01-31T10:55:54.259Z,20.90
2024-01-31T10:58:22.598Z,20.13
2024-01-31T11:00:50.134Z,20.42
2024-01-31T11:03:18.303Z,19.40
2024-01-31T11:05:45.983Z,20.90
2024-01-31T11:08:23.365Z,20.40
2024-01-31T11:10:51.107Z,21.40
2024-01-31T11:13:18.520Z,20.67
2024-01-31T11:15:46.461Z,19.25
2024-01-31T11:18:16.171Z,20.77
2024-01-31T11:20:48.445Z,21.23
2024-01-31T11:23:19.545Z,19.40
2024-01-31T11:25:47.297Z,19.98
2024-01-31T11:28:15.674Z,20.45
2024-01-31T11:30:43.373Z,20.58
2024-01-31T11:33:10.941Z,20.05
2024-01-31T11:35:38.879Z,20.80
2024-01-31T11:38:08.500Z,21.50
2024-01-31T11:40:36.133Z,20.30
2024-01-31T11:43:05.755Z,20.75
2024-01-31T11:45:33.243Z,23.35
2024-01-31T11:48:00.935Z,22.60
2024-01-31T11:50:28.581Z,20.95
2024-01-31T11:52:56.050Z,20.58
2024-01-31T11:55:23.779Z,22.90
2024-01-31T11:57:51.482Z,20.30
2024-01-31T12:00:19.409Z,21.45
2024-01-31T12:02:47.073Z,20.88
2024-01-31T12:05:14.515Z,21.15
2024-01-31T12:07:42.136Z,20.42
2024-01-31T12:10:12.577Z,20.63
2024-01-31T12:12:42.772Z,21.05
2024-01-31T12:15:17.612Z,21.25
2024-01-31T12:17:45.712Z,20.48
2024-01-31T12:20:13.905Z,20.10
2024-01-31T12:22:42.010Z,20.48
2024-01-31T12:25:10.311Z,20.02
2024-01-31T12:27:37.619Z,20.35
2024-01-31T12:30:05.722Z,20.90
2024-01-31T12:32:33.046Z,19.45
2024-01-31T12:35:00.813Z,19.70
2024-01-31T12:37:28.762Z,19.77
2024-01-31T12:39:56.012Z,19.88
2024-01-31T12:42:23.696Z,20.27
2024-01-31T12:44:51.314Z,20.08
2024-01-31T12:47:18.726Z,19.60
2024-01-31T12:49:46.050Z,19.63
2024-01-31T12:52:13.493Z,19.63
2024-01-31T12:54:40.892Z,19.67
2024-01-31T12:57:08.736Z,18.73
2024-01-31T12:59:36.284Z,18.75
2024-01-31T13:02:03.600Z,18.50
2024-01-31T13:04:30.935Z,19.05
2024-01-31T13:06:59.923Z,18.35
2024-01-31T13:09:27.668Z,19.88
2024-01-31T13:11:54.927Z,19.00
2024-01-31T13:14:22.401Z,18.60
2024-01-31T13:16:55.480Z,19.08
2024-01-31T13:19:28.911Z,22.73
2024-01-31T13:21:56.796Z,24.60
2024-01-31T13:24:24.372Z,25.42
2024-01-31T13:26:53.012Z,24.08
2024-01-31T13:29:22.135Z,23.50
2024-01-31T13:31:49.911Z,25.15
2024-01-31T13:34:17.308Z,24.63
2024-01-31T13:36:44.664Z,29.00
2024-01-31T13:39:12.874Z,29.58
2024-01-31T13:41:40.216Z,73.72
2024-01-31T13:44:07.495Z,68.35
2024-01-31T13:46:34.869Z,88.47
2024-01-31T13:49:02.168Z,76.70
2024-01-31T13:51:29.506Z,78.03
2024-01-31T13:53:56.731Z,73.32
2024-01-31T13:56:23.960Z,72.95
2024-01-31T13:58:51.210Z,71.45
2024-01-31T14:01:18.523Z,69.28
2024-01-31T14:03:45.833Z,67.45
2024-01-31T14:06:13.250Z,69.55
2024-01-31T14:08:40.611Z,67.32
2024-01-31T14:11:07.874Z,65.05
2024-01-31T14:13:35.116Z,64.38
2024-01-31T14:16:03.078Z,62.80
2024-01-31T14:18:30.459Z,63.28
2024-01-31T14:20:57.761Z,63.17
2024-01-31T14:23:42.278Z,61.70
2024-01-31T14:28:41.580Z,59.30
2024-01-31T14:31:12.063Z,57.00
2024-01-31T14:33:40.299Z,57.45
2024-01-31T14:36:11.138Z,56.63
2024-01-31T14:38:39.992Z,54.28
2024-01-31T14:41:07.253Z,56.90
2024-01-31T14:43:34.724Z,55.00
2024-01-31T14:46:02.095Z,54.05
2024-01-31T14:48:29.665Z,54.95
2024-01-31T14:50:57.149Z,52.72
2024-01-31T14:53:24.607Z,54.50
2024-01-31T14:55:51.919Z,51.60
2024-01-31T14:58:19.146Z,51.70
2024-01-31T15:00:46.494Z,50.38
2024-01-31T15:03:13.864Z,52.65
2024-01-31T15:05:41.340Z,53.97
2024-01-31T15:08:08.647Z,51.22
2024-01-31T15:10:36.998Z,48.05
2024-01-31T15:13:04.334Z,48.75
2024-01-31T15:15:31.573Z,46.72
2024-01-31T15:17:58.963Z,48.33
2024-01-31T15:20:26.329Z,46.08
2024-01-31T15:22:53.615Z,46.10
2024-01-31T15:25:21.261Z,48.30
2024-01-31T15:27:48.499Z,47.22
2024-01-31T15:30:17.848Z,43.33
2024-01-31T15:32:45.512Z,44.70
2024-01-31T15:35:12.836Z,44.72
2024-01-31T15:37:40.384Z,44.75
2024-01-31T15:40:08.230Z,43.65
2024-01-31T15:42:35.438Z,43.17
2024-01-31T15:45:02.822Z,42.65
2024-01-31T15:47:30.193Z,41.72
2024-01-31T15:49:57.580Z,42.13
2024-01-31T15:52:25.729Z,42.28
2024-01-31T15:54:53.255Z,41.33
2024-01-31T15:57:21.320Z,40.17
2024-01-31T15:59:48.579Z,39.58
2024-01-31T16:02:15.997Z,39.67
2024-01-31T16:04:43.183Z,37.67
2024-01-31T16:07:10.442Z,37.55
2024-01-31T16:09:38.353Z,35.50
2024-01-31T16:12:05.883Z,37.72
2024-01-31T16:14:33.836Z,34.83
2024-01-31T16:17:01.110Z,35.92
2024-01-31T16:19:28.672Z,33.42
2024-01-31T16:21:56.484Z,36.40
2024-01-31T16:24:23.731Z,33.78
2024-01-31T16:26:50.979Z,34.97
2024-01-31T16:29:18.196Z,34.05
2024-01-31T16:31:45.509Z,34.10
2024-01-31T16:34:19.023Z,33.83
2024-01-31T16:36:46.357Z,33.30
2024-01-31T16:39:13.761Z,33.05
2024-01-31T16:41:41.007Z,32.63
2024-01-31T16:44:08.260Z,31.73
2024-01-31T16:46:35.458Z,32.40
2024-01-31T16:49:02.825Z,31.85
2024-01-31T16:51:30.199Z,31.95
2024-01-31T16:53:57.490Z,33.35
2024-01-31T16:56:24.776Z,30.50
2024-01-31T16:58:52.344Z,31.02
2024-01-31T17:01:22.146Z,30.13
2024-01-31T17:03:49.815Z,31.55
2024-01-31T17:06:17.383Z,30.63
2024-01-31T17:08:45.640Z,31.85
2024-01-31T17:11:20.669Z,30.10
2024-01-31T17:13:47.871Z,30.17
2024-01-31T17:16:18.367Z,29.77
2024-01-31T17:18:46.408Z,29.55
2024-01-31T17:21:14.089Z,30.17
2024-01-31T17:23:41.553Z,28.80
2024-01-31T17:26:08.852Z,28.98
2024-01-31T17:28:36.048Z,29.48
2024-01-31T17:31:03.894Z,29.63
2024-01-31T17:33:31.401Z,28.88
2024-01-31T17:35:58.806Z,28.77
2024-01-31T17:38:26.237Z,29.70
2024-01-31T17:40:53.538Z,28.05
2024-01-31T17:43:22.510Z,28.30
2024-01-31T17:45:51.401Z,25.92
2024-01-31T17:48:18.673Z,27.20
2024-01-31T17:50:46.087Z,26.02
2024-01-31T17:53:13.356Z,26.70
2024-01-31T17:55:40.608Z,28.45
2024-01-31T17:58:07.877Z,27.60
2024-01-31T18:00:35.123Z,26.65
2024-01-31T18:03:02.603Z,27.92
2024-01-31T18:05:29.872Z,28.02
2024-01-31T18:07:57.109Z,26.90
2024-01-31T18:10:24.356Z,27.20
2024-01-31T18:12:51.579Z,28.45
2024-01-31T18:15:20.529Z,29.73
2024-01-31T18:17:49.278Z,27.33
2024-01-31T18:20:17.206Z,26.88
2024-01-31T18:22:45.341Z,26.60
2024-01-31T18:25:13.158Z,28.20
2024-01-31T18:27:42.554Z,28.95
2024-01-31T18:30:10.544Z,26.80
2024-01-31T18:32:37.874Z,27.58
2024-01-31T18:35:05.265Z,27.75
2024-01-31T18:37:32.632Z,25.60
2024-01-31T18:39:59.995Z,25.55
2024-01-31T18:42:27.275Z,25.55
2024-01-31T18:44:54.540Z,26.10
2024-01-31T18:47:21.819Z,26.10
2024-01-31T18:49:49.313Z,26.58
2024-01-31T18:52:16.785Z,25.25
2024-01-31T18:54:46.716Z,25.45
2024-01-31T18:57:13.989Z,25.67
2024-01-31T18:59:43.506Z,26.15
2024-01-31T19:02:11.156Z,26.73
2024-01-31T19:04:38.379Z,25.58
2024-01-31T19:07:05.863Z,24.90
2024-01-31T19:09:33.149Z,25.38
2024-01-31T19:12:00.586Z,24.75
2024-01-31T19:14:28.910Z,26.52
2024-01-31T19:17:00.304Z,26.48
2024-01-31T19:19:33.063Z,28.20
2024-01-31T19:22:03.714Z,25.65
2024-01-31T19:24:35.180Z,26.10
2024-01-31T19:27:03.092Z,26.40
2024-01-31T19:29:32.219Z,26.45
2024-01-31T19:31:59.538Z,26.05
2024-01-31T19:34:26.798Z,28.20
2024-01-31T19:36:55.287Z,30.67
2024-01-31T19:39:22.540Z,32.42
2024-01-31T19:41:49.852Z,30.00
2024-01-31T19:44:17.163Z,32.10
2024-01-31T19:46:46.996Z,31.10
2024-01-31T19:49:14.362Z,32.55
2024-01-31T19:51:41.691Z,31.75
2024-01-31T19:54:12.182Z,32.90
2024-01-31T19:56:40.380Z,31.90
2024-01-31T19:59:07.618Z,33.40
2024-01-31T20:01:34.838Z,33.40
2024-01-31T20:04:02.178Z,33.63
2024-01-31T20:06:29.701Z,33.45
2024-01-31T20:08:57.067Z,33.92
2024-01-31T20:11:24.436Z,32.63
2024-01-31T20:13:51.707Z,32.83
2024-01-31T20:16:19.084Z,33.72
2024-01-31T20:18:50.127Z,36.75
2024-01-31T20:21:17.969Z,35.72
2024-01-31T20:23:46.107Z,34.35
2024-01-31T20:26:13.397Z,35.92
2024-01-31T20:28:41.353Z,35.22
2024-01-31T20:31:09.272Z,35.72
2024-01-31T20:33:36.660Z,36.20
2024-01-31T20:36:05.079Z,36.63
2024-01-31T20:38:32.493Z,35.95
2024-01-31T20:40:59.788Z,38.35
2024-01-31T20:43:26.983Z,38.92
2024-01-31T20:45:58.518Z,39.10
2024-01-31T20:48:33.391Z,37.75
2024-01-31T20:51:07.586Z,36.10
2024-01-31T20:53:34.868Z,38.20
2024-01-31T20:56:04.494Z,37.85
2024-01-31T20:58:31.891Z,37.78
2024-01-31T21:00:59.203Z,38.83
2024-01-31T21:03:26.498Z,37.17
2024-01-31T21:05:53.889Z,37.47
2024-01-31T21:08:21.197Z,36.33
2024-01-31T21:10:48.443Z,38.20
2024-01-31T21:13:17.563Z,37.75
2024-01-31T21:15:44.807Z,38.13
2024-01-31T21:18:12.315Z,36.80
2024-01-31T21:20:39.673Z,38.00
2024-01-31T21:23:06.885Z,35.75
2024-01-31T21:25:34.125Z,36.72
2024-01-31T21:28:03.670Z,35.78
2024-01-31T21:30:30.950Z,35.30
2024-01-31T21:32:58.210Z,35.85
2024-01-31T21:35:25.595Z,36.03
2024-01-31T21:37:53.232Z,35.97
2024-01-31T21:40:20.493Z,36.60
2024-01-31T21:42:47.918Z,35.20
2024-01-31T21:45:15.331Z,36.85
2024-01-31T21:47:42.724Z,34.45
2024-01-31T21:50:10.224Z,35.33
2024-01-31T21:52:37.648Z,35.22
2024-01-31T21:55:05.002Z,35.47
2024-01-31T21:57:33.787Z,34.45
2024-01-31T22:00:02.073Z,32.33
2024-01-31T22:02:30.677Z,34.25
2024-01-31T22:04:58.045Z,32.75
2024-01-31T22:07:25.445Z,33.63
2024-01-31T22:09:52.709Z,33.85
2024-01-31T22:12:19.949Z,32.67
2024-01-31T22:14:47.322Z,32.92
2024-01-31T22:17:14.553Z,33.03
2024-01-31T22:19:41.891Z,32.05
2024-01-31T22:22:09.480Z,32.70
2024-01-31T22:24:37.434Z,30.92
2024-01-31T22:27:05.012Z,31.10
2024-01-31T22:29:32.438Z,31.73
2024-01-31T22:32:05.080Z,33.60
2024-01-31T22:34:33.208Z,31.55
2024-01-31T22:37:07.855Z,30.38
2024-01-31T22:39:35.096Z,32.83
2024-01-31T22:42:02.447Z,31.73
2024-01-31T22:44:29.894Z,31.30
2024-01-31T22:46:57.197Z,32.05
2024-01-31T22:49:24.703Z,30.45
2024-01-31T22:51:52.249Z,30.85
2024-01-31T22:54:19.559Z,29.33
2024-01-31T22:56:46.830Z,31.35
2024-01-31T22:59:14.298Z,30.88
2024-01-31T23:01:41.791Z,30.33
2024-01-31T23:04:09.009Z,29.60
2024-01-31T23:06:36.677Z,29.88
2024-01-31T23:09:06.336Z,30.05
2024-01-31T23:11:33.710Z,27.73
2024-01-31T23:14:00.996Z,29.55
2024-01-31T23:16:29.262Z,28.80
2024-01-31T23:18:56.611Z,28.25
2024-01-31T23:21:23.959Z,28.20
2024-01-31T23:23:52.168Z,29.77
2024-01-31T23:26:19.514Z,27.95
2024-01-31T23:28:46.770Z,26.90
2024-01-31T23:31:14.043Z,27.77
2024-01-31T23:33:41.415Z,28.52
2024-01-31T23:36:10.287Z,28.42
2024-01-31T23:38:37.628Z,28.25
2024-01-31T23:41:04.977Z,27.95
2024-01-31T23:43:32.227Z,29.23
2024-01-31T23:45:59.446Z,28.95
2024-01-31T23:48:26.884Z,27.90
2024-01-31T23:50:54.292Z,29.35
2024-01-31T23:53:24.551Z,27.05
2024-01-31T23:55:52.633Z,28.88
2024-01-31T23:58:19.866Z,30.00
